Time;durP1;ratioP1;P1;durP2;ratioP2;P2;SDS_P1;SDS_P2;PMS_P1;PMS_P2;Temp;Humidity;BMP_temperature;BMP_pressure;BME280_temperature;BME280_humidity;BME280_pressure;Samples;Min_cycle;Max_cycle;Signal;HPM_P1;HPM_P2
2023/09/20 00:00:51;;;;;;;5.75;0.77;;;;;;;18.33;100.00;99426.00;5061149;28;20032;-72
2023/09/20 00:03:16;;;;;;;5.43;0.85;;;;;;;18.36;100.00;99427.34;5078064;28;20053;-72
2023/09/20 00:05:43;;;;;;;9.85;0.70;;;;;;;18.37;100.00;99415.34;5077500;28;20060;-72
2023/09/20 00:08:08;;;;;;;3.78;0.80;;;;;;;18.36;100.00;99422.72;5092470;28;20036;-72
2023/09/20 00:10:34;;;;;;;5.63;0.90;;;;;;;18.39;100.00;99413.16;5075184;28;20096;-73
2023/09/20 00:13:00;;;;;;;5.65;0.90;;;;;;;18.23;100.00;99402.38;5055950;28;20032;-73
2023/09/20 00:15:30;;;;;;;5.00;1.00;;;;;;;18.36;100.00;99430.88;5088681;28;20025;-73
2023/09/20 00:17:56;;;;;;;6.22;1.02;;;;;;;18.29;100.00;99433.94;5051175;28;20032;-72
2023/09/20 00:20:21;;;;;;;7.22;1.20;;;;;;;18.20;100.00;99430.16;5068618;28;20123;-72
2023/09/20 00:22:47;;;;;;;8.05;1.15;;;;;;;18.22;100.00;99440.78;5035520;28;20033;-72
2023/09/20 00:25:14;;;;;;;5.72;1.10;;;;;;;18.19;100.00;99439.44;5058678;28;20028;-72
2023/09/20 00:27:41;;;;;;;5.80;0.90;;;;;;;18.15;100.00;99434.84;5062380;28;20020;-72
2023/09/20 00:30:10;;;;;;;7.20;0.98;;;;;;;18.15;100.00;99443.84;5066014;28;20021;-72
2023/09/20 00:32:42;;;;;;;13.38;1.25;;;;;;;18.17;100.00;99452.50;5053898;28;20008;-72
2023/09/20 00:35:10;;;;;;;8.02;1.25;;;;;;;18.16;100.00;99445.44;5070498;28;20032;-72
2023/09/20 00:37:40;;;;;;;12.07;1.83;;;;;;;18.12;100.00;99446.31;5072639;28;20043;-71
2023/09/20 00:40:18;;;;;;;11.52;1.30;;;;;;;18.12;100.00;99455.28;5073327;28;20050;-71
2023/09/20 00:42:46;;;;;;;12.75;1.63;;;;;;;18.13;100.00;99442.47;5072250;28;20024;-71
2023/09/20 00:45:15;;;;;;;12.52;1.90;;;;;;;18.03;100.00;99446.88;5048223;28;20032;-71
2023/09/20 00:47:47;;;;;;;9.35;1.30;;;;;;;17.95;100.00;99454.84;5066098;28;20032;-72
2023/09/20 00:50:14;;;;;;;8.40;1.30;;;;;;;17.96;100.00;99451.03;5084216;28;20498;-72
2023/09/20 00:52:41;;;;;;;7.47;1.45;;;;;;;17.93;100.00;99443.41;5066094;28;20033;-72
2023/09/20 00:55:15;;;;;;;12.13;1.50;;;;;;;17.95;100.00;99457.56;5086127;28;20063;-71
2023/09/20 00:57:46;;;;;;;9.60;1.20;;;;;;;17.91;100.00;99462.75;5072579;28;20036;-72
2023/09/20 01:00:25;;;;;;;9.13;1.40;;;;;;;17.82;100.00;99473.41;5066687;28;20063;-72
2023/09/20 01:02:58;;;;;;;8.35;1.35;;;;;;;17.84;100.00;99473.94;5067994;28;20040;-72
2023/09/20 01:05:36;;;;;;;12.13;1.30;;;;;;;17.77;100.00;99464.44;5069082;28;20059;-72
2023/09/20 01:08:03;;;;;;;12.40;1.30;;;;;;;17.87;100.00;99478.00;5068176;28;20048;-72
2023/09/20 01:10:31;;;;;;;13.60;1.65;;;;;;;17.84;100.00;99484.81;5073838;28;20040;-72
2023/09/20 01:13:04;;;;;;;10.07;1.40;;;;;;;17.61;100.00;99478.09;5080983;28;20408;-72
2023/09/20 01:15:34;;;;;;;11.82;1.42;;;;;;;17.66;100.00;99501.75;5047313;28;20079;-72
2023/09/20 01:18:01;;;;;;;12.30;1.20;;;;;;;17.59;100.00;99510.19;5057673;28;20109;-71
2023/09/20 01:20:31;;;;;;;9.77;1.02;;;;;;;17.56;100.00;99520.81;5058703;28;20032;-72
2023/09/20 01:22:58;;;;;;;11.43;1.30;;;;;;;17.44;100.00;99520.31;5064511;28;20098;-71
2023/09/20 01:25:29;;;;;;;14.50;1.67;;;;;;;17.33;100.00;99530.38;5068500;28;20032;-71
2023/09/20 01:27:57;;;;;;;6.25;1.00;;;;;;;17.25;100.00;99539.09;5066330;28;20100;-71
2023/09/20 01:30:31;;;;;;;5.50;0.80;;;;;;;17.08;100.00;99526.59;5084859;28;20074;-71
2023/09/20 01:33:04;;;;;;;4.60;1.15;;;;;;;16.97;100.00;99535.84;5067249;28;20013;-71
2023/09/20 01:35:30;;;;;;;5.07;0.52;;;;;;;16.89;100.00;99528.25;5069877;28;20067;-71
2023/09/20 01:37:56;;;;;;;4.22;0.80;;;;;;;16.83;100.00;99518.47;5088018;28;20029;-71
2023/09/20 01:40:26;;;;;;;3.55;0.85;;;;;;;16.76;100.00;99521.47;5072717;28;20035;-71
2023/09/20 01:42:53;;;;;;;5.13;0.75;;;;;;;16.73;100.00;99527.41;5071563;28;20048;-72
2023/09/20 01:45:20;;;;;;;5.28;0.50;;;;;;;16.71;100.00;99513.28;5090766;28;20092;-71
2023/09/20 01:47:52;;;;;;;3.33;0.40;;;;;;;16.76;100.00;99521.47;5074737;28;20028;-71
2023/09/20 01:50:20;;;;;;;2.63;0.60;;;;;;;16.75;100.00;99514.38;5092378;28;20019;-71
2023/09/20 01:52:49;;;;;;;2.80;0.45;;;;;;;16.73;100.00;99521.16;5075004;28;20022;-71
2023/09/20 01:55:21;;;;;;;3.00;0.32;;;;;;;16.74;100.00;99520.88;5075062;28;20036;-73
2023/09/20 01:57:57;;;;;;;2.42;0.47;;;;;;;16.78;100.00;99521.19;5093137;28;20437;-71
2023/09/20 02:00:36;;;;;;;2.42;0.40;;;;;;;16.77;100.00;99520.38;5075639;28;20005;-72
2023/09/20 02:03:08;;;;;;;2.70;0.40;;;;;;;16.75;100.00;99522.53;5074871;28;20024;-71
2023/09/20 02:05:36;;;;;;;4.65;0.77;;;;;;;16.79;100.00;99526.34;5092288;28;20052;-71
2023/09/20 02:08:02;;;;;;;8.93;0.98;;;;;;;16.82;100.00;99525.81;5092539;28;20044;-71
2023/09/20 02:10:28;;;;;;;3.55;0.52;;;;;;;16.87;100.00;99528.53;5074695;28;20024;-71
2023/09/20 02:12:55;;;;;;;5.07;0.55;;;;;;;16.87;100.00;99533.97;5074885;28;20035;-71
2023/09/20 02:15:23;;;;;;;2.88;0.30;;;;;;;16.87;100.00;99533.97;5074267;28;20031;-71
2023/09/20 02:17:49;;;;;;;4.45;0.40;;;;;;;16.90;100.00;99529.88;5091395;28;20043;-71
2023/09/20 02:20:23;;;;;;;1.77;0.43;;;;;;;16.94;100.00;99532.88;5073081;28;20025;-71
2023/09/20 02:22:51;;;;;;;1.88;0.30;;;;;;;16.94;100.00;99532.88;5074280;28;20031;-71
2023/09/20 02:25:24;;;;;;;3.75;0.40;;;;;;;16.99;100.00;99528.25;5078847;28;20021;-71
2023/09/20 02:27:58;;;;;;;3.40;0.57;;;;;;;17.02;100.00;99529.59;5096411;28;20025;-71
2023/09/20 02:30:28;;;;;;;4.90;0.40;;;;;;;17.02;100.00;99519.56;5096796;28;20050;-72
2023/09/20 02:32:55;;;;;;;2.00;0.32;;;;;;;17.00;100.00;99516.28;5079401;28;20100;-71
2023/09/20 02:35:21;;;;;;;2.80;0.50;;;;;;;17.08;100.00;99529.31;5097231;28;20043;-71
2023/09/20 02:37:48;;;;;;;3.45;0.50;;;;;;;17.08;100.00;99528.50;5097127;28;20102;-71
2023/09/20 02:40:14;;;;;;;5.03;0.40;;;;;;;17.06;100.00;99523.34;5079139;28;20020;-71
2023/09/20 02:42:41;;;;;;;3.60;0.50;;;;;;;17.07;100.00;99529.59;5079169;28;20025;-72
2023/09/20 02:45:08;;;;;;;3.15;0.60;;;;;;;16.97;100.00;99505.97;5096198;28;20059;-71
2023/09/20 02:47:34;;;;;;;4.28;0.77;;;;;;;17.09;100.00;99525.53;5078408;28;20032;-71
2023/09/20 02:50:00;;;;;;;1.67;0.40;;;;;;;17.10;100.00;99526.34;5096409;28;20032;-71
2023/09/20 02:52:25;;;;;;;1.85;0.38;;;;;;;17.08;100.00;99534.75;5096487;28;20020;-71
2023/09/20 02:54:51;;;;;;;4.80;0.50;;;;;;;17.09;100.00;99538.31;5062987;28;20102;-71
2023/09/20 02:57:18;;;;;;;7.43;0.55;;;;;;;17.09;100.00;99536.41;5062521;28;20047;-71
2023/09/20 02:59:43;;;;;;;5.10;0.60;;;;;;;17.09;100.00;99530.97;5062092;28;20058;-71
2023/09/20 03:02:10;;;;;;;3.17;0.50;;;;;;;17.08;100.00;99528.50;5077572;28;20068;-71
2023/09/20 03:04:38;;;;;;;6.20;0.57;;;;;;;17.09;100.00;99524.72;5095254;28;20048;-71
2023/09/20 03:07:06;;;;;;;4.63;0.45;;;;;;;17.05;100.00;99534.50;5078605;28;20097;-71
2023/09/20 03:09:36;;;;;;;4.22;0.40;;;;;;;16.97;100.00;99530.41;5061594;28;20123;-71
2023/09/20 03:12:06;;;;;;;3.03;0.60;;;;;;;17.04;100.00;99541.03;5079011;28;20031;-70
2023/09/20 03:14:40;;;;;;;2.65;0.40;;;;;;;17.07;100.00;99543.19;5096063;28;20336;-71
2023/09/20 03:17:06;;;;;;;3.75;0.50;;;;;;;16.98;100.00;99520.38;5077657;28;20036;-72
2023/09/20 03:19:31;;;;;;;7.10;1.15;;;;;;;17.09;100.00;99541.84;5096201;28;20515;-71
2023/09/20 03:22:01;;;;;;;4.38;0.50;;;;;;;17.10;100.00;99537.22;5077641;28;20028;-72
2023/09/20 03:24:27;;;;;;;6.22;0.60;;;;;;;17.07;100.00;99532.31;5092407;28;20013;-72
2023/09/20 03:26:54;;;;;;;6.25;1.25;;;;;;;17.01;100.00;99523.34;5091375;28;20042;-72
2023/09/20 03:29:20;;;;;;;4.78;0.40;;;;;;;17.11;100.00;99526.06;5092275;28;20115;-72
2023/09/20 03:31:48;;;;;;;4.20;0.70;;;;;;;17.01;100.00;99506.22;5094092;28;20078;-72
2023/09/20 03:34:14;;;;;;;5.25;0.60;;;;;;;17.12;100.00;99532.34;5076312;28;20024;-71
2023/09/20 03:36:41;;;;;;;5.63;0.70;;;;;;;17.14;100.00;99521.97;5059371;28;20025;-72
2023/09/20 03:39:11;;;;;;;3.42;0.70;;;;;;;17.16;100.00;99519.81;5078150;28;20055;-71
2023/09/20 03:41:38;;;;;;;3.65;0.60;;;;;;;16.99;100.00;99497.56;5078194;28;20024;-72
2023/09/20 03:44:05;;;;;;;5.25;0.65;;;;;;;17.04;100.00;99516.56;5095455;28;20020;-71
2023/09/20 03:46:32;;;;;;;4.40;0.60;;;;;;;17.06;100.00;99519.84;5094921;28;20035;-71
2023/09/20 03:48:57;;;;;;;4.03;0.70;;;;;;;17.06;100.00;99515.19;5077169;28;20033;-72
2023/09/20 03:51:23;;;;;;;3.47;0.70;;;;;;;17.06;100.00;99514.41;5093902;28;20084;-72
2023/09/20 03:53:49;;;;;;;4.97;0.60;;;;;;;17.09;100.00;99508.41;5095244;28;20019;-71
2023/09/20 03:56:15;;;;;;;3.85;0.60;;;;;;;17.08;100.00;99520.34;5058979;28;20052;-72
2023/09/20 03:58:41;;;;;;;2.97;0.70;;;;;;;17.05;100.00;99521.75;5093281;28;20033;-72
2023/09/20 04:01:11;;;;;;;3.55;0.80;;;;;;;17.11;100.00;99514.38;5074080;28;20020;-73
2023/09/20 04:03:37;;;;;;;4.45;0.70;;;;;;;17.16;100.00;99521.72;5076672;28;20016;-72
2023/09/20 04:06:02;;;;;;;2.35;0.63;;;;;;;17.16;100.00;99521.72;5060303;28;20033;-72
2023/09/20 04:08:28;;;;;;;7.13;0.73;;;;;;;17.12;100.00;99525.00;5075620;28;20096;-72
2023/09/20 04:10:54;;;;;;;6.70;0.70;;;;;;;17.22;100.00;99532.31;5031262;28;20035;-72
2023/09/20 04:13:21;;;;;;;2.03;0.55;;;;;;;17.18;100.00;99520.34;5061319;28;20054;-72
2023/09/20 04:15:46;;;;;;;3.60;0.77;;;;;;;17.16;100.00;99511.66;5079815;28;20406;-70
2023/09/20 04:18:12;;;;;;;3.72;0.90;;;;;;;17.16;100.00;99525.25;5059214;28;20036;-68
2023/09/20 04:20:39;;;;;;;3.85;0.77;;;;;;;17.19;100.00;99513.03;5083966;28;21393;-70
2023/09/20 04:23:05;;;;;;;2.83;0.90;;;;;;;17.09;100.00;99503.78;5081441;28;20082;-69
2023/09/20 04:25:30;;;;;;;3.42;0.82;;;;;;;17.21;100.00;99521.69;5081246;28;20036;-71
2023/09/20 04:27:56;;;;;;;3.20;0.90;;;;;;;17.17;100.00;99520.63;5066564;28;20084;-73
2023/09/20 04:30:21;;;;;;;5.47;0.80;;;;;;;17.16;100.00;99511.66;5085017;28;20090;-72
2023/09/20 04:32:47;;;;;;;2.58;0.77;;;;;;;17.20;100.00;99507.28;5062732;28;20027;-70
2023/09/20 04:35:13;;;;;;;7.13;1.20;;;;;;;17.22;100.00;99517.88;5081180;28;20037;-70
2023/09/20 04:37:38;;;;;;;4.70;1.10;;;;;;;17.14;100.00;99511.09;5047925;28;20039;-71
2023/09/20 04:40:07;;;;;;;2.83;1.00;;;;;;;17.19;100.00;99504.88;5066656;28;20380;-71
2023/09/20 04:42:35;;;;;;;2.38;0.80;;;;;;;17.24;100.00;99508.38;5064863;28;20151;-71
2023/09/20 04:45:06;;;;;;;2.58;0.80;;;;;;;17.24;100.00;99510.28;5082330;28;20036;-71
2023/09/20 04:47:34;;;;;;;3.67;1.15;;;;;;;17.22;100.00;99502.41;5063472;28;20029;-71
2023/09/20 04:49:59;;;;;;;7.47;0.80;;;;;;;17.19;100.00;99485.84;5046716;28;20376;-70
2023/09/20 04:52:25;;;;;;;5.45;0.63;;;;;;;17.36;100.00;99510.81;5080409;28;20507;-71
2023/09/20 04:54:52;;;;;;;3.30;0.80;;;;;;;17.34;100.00;99500.19;5063447;28;20036;-71
2023/09/20 04:57:17;;;;;;;4.07;0.80;;;;;;;17.41;100.00;99497.19;5081931;28;20096;-71
2023/09/20 04:59:45;;;;;;;3.92;0.90;;;;;;;17.43;100.00;99496.94;5063145;28;20051;-71
2023/09/20 05:02:10;;;;;;;4.82;1.17;;;;;;;17.48;100.00;99499.63;5063431;28;20020;-71
2023/09/20 05:04:36;;;;;;;4.00;0.95;;;;;;;17.45;100.00;99492.00;5064433;28;20083;-71
2023/09/20 05:07:05;;;;;;;6.72;1.10;;;;;;;17.46;100.00;99490.94;5066413;28;20143;-71
2023/09/20 05:09:32;;;;;;;7.47;1.00;;;;;;;17.53;100.00;99496.91;5067038;28;20088;-71
2023/09/20 05:11:58;;;;;;;3.97;0.90;;;;;;;17.53;100.00;99505.84;5064308;28;20029;-70
2023/09/20 05:14:23;;;;;;;3.50;1.00;;;;;;;17.52;100.00;99498.00;5064633;28;20028;-71
2023/09/20 05:16:49;;;;;;;4.30;0.90;;;;;;;17.50;100.00;99519.19;5066270;28;20024;-71
2023/09/20 05:19:14;;;;;;;3.58;1.17;;;;;;;17.50;100.00;99519.19;5053467;28;20039;-71
2023/09/20 05:21:40;;;;;;;4.60;1.27;;;;;;;17.60;100.00;99522.69;5065935;28;20028;-72
2023/09/20 05:24:06;;;;;;;4.97;1.50;;;;;;;17.63;100.00;99515.91;5064100;28;20036;-72
2023/09/20 05:26:33;;;;;;;3.78;1.90;;;;;;;17.68;100.00;99520.50;5081183;28;20905;-71
2023/09/20 05:28:58;;;;;;;4.97;1.95;;;;;;;17.73;100.00;99524.03;5062960;28;20044;-70
2023/09/20 05:31:26;;;;;;;4.82;1.95;;;;;;;17.74;100.00;99524.81;5083150;28;20016;-72
2023/09/20 05:33:51;;;;;;;9.25;1.83;;;;;;;17.93;100.00;99530.50;5083277;28;20020;-71
2023/09/20 05:36:21;;;;;;;6.55;1.75;;;;;;;17.97;100.00;99517.97;5066068;28;20096;-71
2023/09/20 05:38:49;;;;;;;6.05;1.63;;;;;;;18.04;100.00;99499.41;5063374;28;20037;-71
2023/09/20 05:41:17;;;;;;;10.75;1.88;;;;;;;18.35;100.00;99519.13;5084574;28;20070;-71
2023/09/20 05:43:42;;;;;;;17.70;2.83;;;;;;;18.53;100.00;99523.09;5080772;28;20062;-71
2023/09/20 05:46:08;;;;;;;18.92;3.00;;;;;;;18.67;100.00;99513.16;5079724;28;20028;-71
2023/09/20 05:48:35;;;;;;;18.05;3.53;;;;;;;18.86;100.00;99526.16;5062846;28;20040;-70
2023/09/20 05:51:01;;;;;;;23.55;4.28;;;;;;;18.90;100.00;99519.81;5077540;28;20123;-71
2023/09/20 05:53:28;;;;;;;24.02;4.50;;;;;;;19.05;100.00;99526.28;5078191;28;20063;-71
2023/09/20 05:55:53;;;;;;;27.55;5.55;;;;;;;19.21;100.00;99525.03;5059605;28;20032;-70
2023/09/20 05:58:19;;;;;;;31.08;5.38;;;;;;;19.31;100.00;99529.56;5058818;28;20391;-71
2023/09/20 06:00:45;;;;;;;27.92;4.53;;;;;;;19.34;100.00;99537.19;5077534;28;20049;-71
2023/09/20 06:03:12;;;;;;;34.17;5.25;;;;;;;19.41;100.00;99532.19;5058654;28;20058;-71
2023/09/20 06:05:38;;;;;;;26.30;5.15;;;;;;;19.51;100.00;99543.00;5059470;28;20056;-70
2023/09/20 06:08:08;;;;;;;29.38;5.03;;;;;;;19.60;100.00;99546.72;5057508;28;20031;-71
2023/09/20 06:10:35;;;;;;;31.52;5.25;;;;;;;19.73;100.00;99547.16;5075224;28;20092;-71
2023/09/20 06:13:01;;;;;;;28.63;5.50;;;;;;;19.79;100.00;99546.00;5058087;28;20100;-70
2023/09/20 06:15:26;;;;;;;28.52;5.45;;;;;;;19.83;100.00;99538.84;5058324;28;20062;-71
2023/09/20 06:17:51;;;;;;;31.77;5.72;;;;;;;19.74;100.00;99535.94;5058495;28;20032;-71
2023/09/20 06:20:21;;;;;;;24.95;5.07;;;;;;;19.88;100.00;99555.16;5043741;28;20035;-71
2023/09/20 06:22:51;;;;;;;29.55;5.93;;;;;;;19.98;100.00;99554.22;5060707;28;20052;-70
2023/09/20 06:25:21;;;;;;;30.83;6.05;;;;;;;20.05;100.00;99549.22;5074918;28;20082;-70
2023/09/20 06:27:50;;;;;;;27.25;5.05;;;;;;;20.04;100.00;99536.69;5077194;28;20430;-70
2023/09/20 06:30:17;;;;;;;28.00;4.82;;;;;;;20.22;100.00;99551.47;5077182;28;20113;-71
2023/09/20 06:32:44;;;;;;;27.15;5.10;;;;;;;20.30;100.00;99551.63;5059586;28;20051;-70
2023/09/20 06:35:12;;;;;;;27.73;5.15;;;;;;;20.44;100.00;99556.38;5058060;28;20058;-70
2023/09/20 06:37:38;;;;;;;29.08;5.00;;;;;;;20.38;100.00;99548.22;5075644;28;20031;-70
2023/09/20 06:40:15;;;;;;;29.45;5.25;;;;;;;20.41;100.00;99555.03;5059342;28;20032;-71
2023/09/20 06:42:40;;;;;;;28.45;4.85;;;;;;;20.34;100.00;99565.50;5077299;28;20029;-71
2023/09/20 06:45:08;;;;;;;33.20;5.47;;;;;;;20.36;100.00;99564.13;5077213;28;20021;-71
2023/09/20 06:47:34;;;;;;;27.75;5.63;;;;;;;20.37;100.00;99573.13;5060058;28;20032;-71
2023/09/20 06:50:02;;;;;;;28.73;5.00;;;;;;;20.30;100.00;99578.94;5077739;28;20028;-70
2023/09/20 06:52:28;;;;;;;29.35;5.30;;;;;;;20.33;100.00;99574.78;5059687;28;20051;-70
2023/09/20 06:54:53;;;;;;;30.58;5.65;;;;;;;20.37;100.00;99582.13;5077489;28;20498;-71
2023/09/20 06:57:21;;;;;;;27.20;5.32;;;;;;;20.35;100.00;99567.13;5058954;28;20090;-71
2023/09/20 06:59:47;;;;;;;31.80;5.65;;;;;;;20.48;100.00;99596.44;5059650;28;20036;-71
2023/09/20 07:02:16;;;;;;;33.55;5.72;;;;;;;20.49;100.00;99595.34;5077254;28;20043;-70
2023/09/20 07:04:42;;;;;;;33.15;5.90;;;;;;;20.45;100.00;99612.63;5042425;28;20071;-70
2023/09/20 07:07:08;;;;;;;25.95;4.55;;;;;;;20.45;100.00;99613.44;5042580;28;20032;-70
2023/09/20 07:09:34;;;;;;;24.85;6.07;;;;;;;20.47;100.00;99613.16;5060294;28;20042;-70
2023/09/20 07:12:03;;;;;;;26.23;4.50;;;;;;;20.51;100.00;99615.03;5063032;28;20084;-71
2023/09/20 07:14:31;;;;;;;27.08;5.32;;;;;;;20.48;100.00;99622.97;5080714;28;20077;-70
2023/09/20 07:16:57;;;;;;;29.83;4.97;;;;;;;20.57;100.00;99623.97;5080741;28;20051;-71
2023/09/20 07:19:26;;;;;;;31.15;5.05;;;;;;;20.59;100.00;99619.00;5080354;28;20035;-70
2023/09/20 07:21:52;;;;;;;30.48;4.90;;;;;;;20.44;100.00;99617.28;5080319;28;20021;-71
2023/09/20 07:24:21;;;;;;;24.77;5.07;;;;;;;20.78;100.00;99638.16;5060401;28;20078;-71
2023/09/20 07:26:50;;;;;;;29.02;4.80;;;;;;;20.81;100.00;99645.78;5062204;28;20043;-71
2023/09/20 07:29:15;;;;;;;24.83;5.05;;;;;;;20.72;100.00;99642.06;5061475;28;20036;-71
2023/09/20 07:31:42;;;;;;;33.85;5.50;;;;;;;20.77;100.00;99653.75;5060457;28;20041;-71
2023/09/20 07:34:10;;;;;;;29.08;5.20;;;;;;;20.71;100.00;99649.47;5061337;28;20025;-71
2023/09/20 07:36:40;;;;;;;30.42;5.55;;;;;;;20.65;100.00;99659.66;5080567;28;20103;-70
2023/09/20 07:39:12;;;;;;;34.72;5.45;;;;;;;20.68;100.00;99666.44;5080650;28;20036;-70
2023/09/20 07:41:50;;;;;;;34.25;6.03;;;;;;;20.70;100.00;99668.91;5079885;28;20070;-71
2023/09/20 07:44:15;;;;;;;31.92;6.00;;;;;;;20.63;100.00;99664.63;5079739;28;20483;-70
2023/09/20 07:46:42;;;;;;;28.95;5.72;;;;;;;20.70;100.00;99672.44;5059730;28;20028;-70
2023/09/20 07:49:12;;;;;;;33.22;5.80;;;;;;;20.86;100.00;99673.88;5077395;28;20028;-71
2023/09/20 07:51:39;;;;;;;32.75;5.63;;;;;;;20.95;100.00;99684.94;5062373;28;20062;-71
2023/09/20 07:54:10;;;;;;;33.00;6.03;;;;;;;21.09;100.00;99680.38;5062138;28;20035;-71
2023/09/20 07:56:40;;;;;;;31.42;5.82;;;;;;;21.04;100.00;99674.97;5062450;28;20490;-71
2023/09/20 07:59:05;;;;;;;30.70;5.35;;;;;;;21.11;100.00;99667.19;5081402;28;20114;-71
2023/09/20 08:01:32;;;;;;;29.05;6.22;;;;;;;21.34;100.00;99672.88;5063424;28;20467;-71
2023/09/20 08:03:58;;;;;;;36.03;5.80;;;;;;;21.49;100.00;99674.56;5081123;28;20060;-71
2023/09/20 08:06:27;;;;;;;31.52;5.65;;;;;;;21.56;100.00;99675.00;5082293;28;20066;-71
2023/09/20 08:08:54;;;;;;;32.45;5.82;;;;;;;21.55;100.00;99674.19;5087378;28;20410;-71
2023/09/20 08:11:20;;;;;;;32.67;5.53;;;;;;;21.46;100.00;99653.28;5086715;28;20025;-71
2023/09/20 08:13:46;;;;;;;32.03;5.55;;;;;;;21.65;100.00;99672.38;5065336;28;20034;-71
2023/09/20 08:16:12;;;;;;;27.83;5.85;;;;;;;21.77;100.00;99667.25;5081273;28;20032;-71
2023/09/20 08:21:25;;;;;;;23.05;4.50;;;;;;;21.90;100.00;99674.69;5083277;28;20055;-70
2023/09/20 09:02:37;;;;;;;30.77;5.78;;;;;;;22.52;100.00;99709.97;5017321;28;20046;-71
2023/09/20 09:05:05;;;;;;;27.75;5.00;;;;;;;22.57;100.00;99712.59;5066411;28;20079;-72
2023/09/20 09:07:30;;;;;;;28.55;5.50;;;;;;;22.59;100.00;99710.38;5044373;28;20205;-72
2023/09/20 09:09:58;;;;;;;26.42;5.65;;;;;;;22.64;100.00;99715.72;5079003;28;20052;-72
2023/09/20 09:12:23;;;;;;;26.73;5.85;;;;;;;22.62;100.00;99725.41;5061596;28;20462;-71
2023/09/20 09:14:49;;;;;;;26.20;5.15;;;;;;;22.71;100.00;99724.38;5078630;28;20024;-72
2023/09/20 09:17:15;;;;;;;25.05;4.75;;;;;;;22.74;100.00;99725.69;5079030;28;20433;-72
2023/09/20 09:19:41;;;;;;;24.58;5.20;;;;;;;22.68;100.00;99724.16;5059015;28;20043;-71
2023/09/20 09:22:07;;;;;;;26.15;4.97;;;;;;;22.76;100.00;99731.69;5057651;28;20157;-72
2023/09/20 09:24:44;;;;;;;24.00;4.95;;;;;;;22.70;100.00;99738.38;5060654;28;20402;-72
2023/09/20 09:27:10;;;;;;;30.95;5.32;;;;;;;22.68;100.00;99741.44;5078594;28;20028;-72
2023/09/20 09:29:36;;;;;;;26.38;4.57;;;;;;;22.63;100.00;99743.47;5060700;28;20033;-72
2023/09/20 09:32:04;;;;;;;26.00;5.20;;;;;;;22.58;100.00;99732.59;5043815;28;20050;-72
2023/09/20 09:34:30;;;;;;;21.17;4.93;;;;;;;22.61;100.00;99756.66;5060115;28;20510;-72
2023/09/20 09:36:56;;;;;;;24.80;4.97;;;;;;;22.66;100.00;99748.34;5078538;28;20052;-72
2023/09/20 09:39:21;;;;;;;29.58;5.65;;;;;;;22.67;100.00;99748.03;5061137;28;20032;-72
2023/09/20 09:41:47;;;;;;;24.92;5.00;;;;;;;22.73;100.00;99746.00;5078946;28;20028;-72
2023/09/20 09:44:15;;;;;;;27.88;4.97;;;;;;;22.79;100.00;99743.97;5078060;28;20062;-72
2023/09/20 09:46:43;;;;;;;26.58;4.72;;;;;;;22.73;100.00;99755.03;5078867;28;20106;-72
2023/09/20 09:49:12;;;;;;;23.83;4.82;;;;;;;22.62;100.00;99756.38;5060481;28;20070;-72
2023/09/20 09:51:45;;;;;;;25.33;5.70;;;;;;;22.40;100.00;99759.81;5078262;28;20032;-71
2023/09/20 09:54:13;;;;;;;23.83;4.80;;;;;;;22.25;100.00;99771.88;5078759;28;20020;-72
2023/09/20 09:56:39;;;;;;;29.00;5.05;;;;;;;22.32;100.00;99766.00;5078768;28;20086;-72
2023/09/20 09:59:05;;;;;;;22.15;4.47;;;;;;;22.31;100.00;99760.81;5061365;28;20101;-71
2023/09/20 10:01:37;;;;;;;31.08;5.03;;;;;;;22.60;100.00;99779.72;5078189;28;20067;-72
2023/09/20 10:04:10;;;;;;;30.05;5.05;;;;;;;22.65;100.00;99774.97;5080039;28;20079;-72
2023/09/20 10:06:48;;;;;;;23.75;4.70;;;;;;;22.90;100.00;99786.50;5058323;28;20037;-71
2023/09/20 10:09:17;;;;;;;23.73;5.07;;;;;;;22.91;100.00;99783.47;5075160;28;20441;-72
2023/09/20 10:11:44;;;;;;;25.10;5.18;;;;;;;22.91;100.00;99786.22;5078472;28;20092;-72
2023/09/20 10:14:11;;;;;;;23.38;4.72;;;;;;;22.99;100.00;99781.97;5058119;28;20056;-71
2023/09/20 10:16:42;;;;;;;20.92;4.53;;;;;;;23.04;100.00;99787.34;5075286;28;20051;-72
2023/09/20 10:19:17;;;;;;;21.50;5.00;;;;;;;23.11;100.00;99779.53;5059537;28;20123;-71
2023/09/20 10:22:08;;;;;;;20.60;4.07;;;;;;;23.26;100.00;99789.34;5059185;28;20035;-72
2023/09/20 10:25:00;;;;;;;23.45;4.40;;;;;;;23.35;100.00;99784.75;5078635;28;20033;-72
2023/09/20 10:27:31;;;;;;;24.33;4.68;;;;;;;23.62;100.00;99783.84;5061016;28;20025;-71
2023/09/20 10:30:00;;;;;;;19.88;4.60;;;;;;;23.84;100.00;99780.34;5078698;28;20020;-72
2023/09/20 10:32:32;;;;;;;27.65;5.35;;;;;;;23.81;100.00;99811.19;5078927;28;20047;-72
2023/09/20 10:35:18;;;;;;;21.05;4.80;;;;;;;23.78;100.00;99808.25;5061186;28;20047;-72
2023/09/20 10:37:56;;;;;;;18.27;4.18;;;;;;;23.70;99.47;99798.78;5078509;28;20024;-72
2023/09/20 10:40:22;;;;;;;22.42;5.20;;;;;;;23.77;99.95;99803.84;5060855;28;20048;-71
2023/09/20 10:42:51;;;;;;;21.30;4.50;;;;;;;23.68;100.00;99809.28;5079353;28;20029;-72
2023/09/20 10:45:17;;;;;;;21.50;4.50;;;;;;;23.42;100.00;99801.59;5064141;28;20021;-72
2023/09/20 10:47:48;;;;;;;18.70;4.38;;;;;;;23.32;100.00;99801.03;5082975;28;20032;-72
2023/09/20 10:50:48;;;;;;;23.23;4.47;;;;;;;23.36;100.00;99797.34;5065304;28;20052;-72
2023/09/20 10:53:19;;;;;;;23.20;4.80;;;;;;;23.21;100.00;99816.88;5084256;28;20047;-72
2023/09/20 10:55:46;;;;;;;21.70;4.63;;;;;;;23.16;100.00;99803.28;5084321;28;20111;-72
2023/09/20 10:58:18;;;;;;;23.38;4.53;;;;;;;23.07;100.00;99818.84;5063395;28;20099;-72
2023/09/20 11:00:44;;;;;;;24.15;4.45;;;;;;;23.03;100.00;99823.31;5063839;28;20032;-72
2023/09/20 11:03:11;;;;;;;19.13;4.03;;;;;;;23.18;100.00;99826.56;5079214;28;20054;-72
2023/09/20 11:05:38;;;;;;;19.85;4.35;;;;;;;23.19;100.00;99814.47;5059909;28;20049;-72
2023/09/20 11:08:09;;;;;;;21.00;4.05;;;;;;;23.28;100.00;99821.97;5045324;28;20055;-72
2023/09/20 11:10:45;;;;;;;20.42;4.47;;;;;;;23.25;100.00;99825.34;5076633;28;20025;-72
2023/09/20 11:13:14;;;;;;;23.50;4.75;;;;;;;23.19;100.00;99830.94;5079785;28;20020;-72
2023/09/20 11:15:43;;;;;;;17.60;4.10;;;;;;;23.14;100.00;99827.47;5082660;28;20383;-72
2023/09/20 11:18:09;;;;;;;20.10;4.00;;;;;;;23.21;100.00;99836.94;5049221;28;20024;-71
2023/09/20 11:20:35;;;;;;;17.38;4.13;;;;;;;23.32;100.00;99837.53;5082975;28;20035;-72
2023/09/20 11:23:02;;;;;;;18.13;3.65;;;;;;;23.15;100.00;99834.59;5064272;28;20105;-72
2023/09/20 11:25:31;;;;;;;20.92;4.50;;;;;;;23.14;100.00;99866.69;5082451;28;20035;-71
2023/09/20 11:27:57;;;;;;;19.92;4.35;;;;;;;23.13;100.00;99870.56;5082482;28;20024;-72
2023/09/20 11:30:31;;;;;;;22.23;4.80;;;;;;;23.09;100.00;99863.25;5065789;28;20055;-72
2023/09/20 11:32:58;;;;;;;21.17;4.72;;;;;;;23.20;100.00;99860.00;5083252;28;20076;-72
2023/09/20 11:35:34;;;;;;;20.35;4.18;;;;;;;23.15;99.38;99862.03;5083321;28;20067;-72
2023/09/20 11:38:04;;;;;;;22.65;3.92;;;;;;;23.21;99.65;99872.63;5049038;28;20082;-71
2023/09/20 11:40:31;;;;;;;19.52;3.60;;;;;;;23.34;99.05;99883.88;5064687;28;20051;-72
2023/09/20 11:42:57;;;;;;;16.77;4.18;;;;;;;23.11;99.87;99880.22;5065613;28;20025;-71
2023/09/20 11:45:24;;;;;;;19.83;3.60;;;;;;;23.20;98.96;99892.94;5047515;28;20391;-72
2023/09/20 11:47:51;;;;;;;17.85;4.00;;;;;;;23.11;99.11;99886.53;5083320;28;20138;-72
2023/09/20 11:50:17;;;;;;;20.45;3.55;;;;;;;23.26;98.53;99890.09;5080243;28;20078;-71
2023/09/20 11:52:44;;;;;;;10.90;2.42;;;;;;;23.13;98.42;99889.78;5061265;28;20025;-72
2023/09/20 11:55:13;;;;;;;12.68;2.60;;;;;;;22.95;99.78;99894.25;5081785;28;20026;-72
2023/09/20 11:57:45;;;;;;;11.63;2.40;;;;;;;22.89;100.00;99894.63;5046888;28;20032;-71
2023/09/20 12:00:24;;;;;;;14.43;2.78;;;;;;;22.94;100.00;99887.13;5080072;28;20050;-72
2023/09/20 12:02:50;;;;;;;12.90;2.80;;;;;;;22.82;100.00;99894.22;5045803;28;20177;-72
2023/09/20 12:05:21;;;;;;;11.65;3.03;;;;;;;22.84;100.00;99901.00;5076264;28;20083;-71
2023/09/20 12:08:00;;;;;;;15.02;3.40;;;;;;;22.80;100.00;99902.72;5061263;28;20063;-72